Time;durP1;ratioP1;P1;durP2;ratioP2;P2;SDS_P1;SDS_P2;PMS_P1;PMS_P2;Temp;Humidity;BMP_temperature;BMP_pressure;BME280_temperature;BME280_humidity;BME280_pressure;Samples;Min_cycle;Max_cycle;Signal;HPM_P1;HPM_P2
2024/03/25 00:00:36;;;;;;;3.80;1.48;;;;;;;;;;5015187;28;20184;-82
2024/03/25 00:03:01;;;;;;;1.90;1.17;;;;;;;;;;5003778;28;20115;-82
2024/03/25 00:05:27;;;;;;;4.50;1.50;;;;;;;;;;4998524;28;20057;-82
2024/03/25 00:07:53;;;;;;;2.40;1.25;;;;;;;;;;4998275;28;20076;-82
2024/03/25 00:10:20;;;;;;;4.18;1.42;;;;;;;;;;4998925;28;20063;-81
2024/03/25 00:12:47;;;;;;;4.10;1.60;;;;;;;;;;4986776;28;20058;-81
2024/03/25 00:15:12;;;;;;;1.85;1.60;;;;;;;;;;5025272;28;20072;-81
2024/03/25 00:17:38;;;;;;;1.88;1.30;;;;;;;;;;5007839;28;20065;-80
2024/03/25 00:20:05;;;;;;;1.27;1.17;;;;;;;;;;4994568;28;20424;-81
2024/03/25 00:22:31;;;;;;;2.28;1.00;;;;;;;;;;5020417;28;20053;-80
2024/03/25 00:24:57;;;;;;;2.97;1.38;;;;;;;;;;5004569;28;20048;-80
2024/03/25 00:27:22;;;;;;;4.70;1.95;;;;;;;;;;4998111;28;20068;-80
2024/03/25 00:29:48;;;;;;;2.83;1.38;;;;;;;;;;4978090;28;20065;-80
2024/03/25 00:32:14;;;;;;;2.30;1.67;;;;;;;;;;5001796;28;20059;-82
2024/03/25 00:34:40;;;;;;;3.75;1.70;;;;;;;;;;4998035;28;20593;-83
2024/03/25 00:37:06;;;;;;;4.95;1.90;;;;;;;;;;5023272;28;20117;-83
2024/03/25 00:39:34;;;;;;;2.58;1.77;;;;;;;;;;4997024;28;20053;-82
2024/03/25 00:42:00;;;;;;;3.75;1.50;;;;;;;;;;4986286;28;20126;-83
2024/03/25 00:44:26;;;;;;;4.13;1.90;;;;;;;;;;4981760;28;20050;-83
2024/03/25 00:46:51;;;;;;;3.25;1.20;;;;;;;;;;4998166;28;20045;-82
2024/03/25 00:49:17;;;;;;;1.80;1.40;;;;;;;;;;4995011;28;20050;-82
2024/03/25 00:51:42;;;;;;;5.47;1.42;;;;;;;;;;5021095;28;20436;-82
2024/03/25 00:54:08;;;;;;;2.00;1.23;;;;;;;;;;5005020;28;20427;-83
2024/03/25 00:56:33;;;;;;;4.07;1.50;;;;;;;;;;4998603;28;20072;-81
2024/03/25 00:59:02;;;;;;;2.67;1.50;;;;;;;;;;5000202;28;20089;-79
2024/03/25 01:01:31;;;;;;;3.83;1.83;;;;;;;;;;4987168;28;20045;-81
2024/03/25 01:03:57;;;;;;;4.10;1.67;;;;;;;;;;5009731;28;20053;-82
2024/03/25 01:06:22;;;;;;;2.90;1.48;;;;;;;;;;4997360;28;20120;-80
2024/03/25 01:08:49;;;;;;;2.28;1.40;;;;;;;;;;4977714;28;20149;-80
2024/03/25 01:11:14;;;;;;;3.35;1.20;;;;;;;;;;5003153;28;20514;-80
2024/03/25 01:13:41;;;;;;;4.63;1.73;;;;;;;;;;5000758;28;20115;-80
2024/03/25 01:16:07;;;;;;;3.28;1.60;;;;;;;;;;5005587;28;20050;-79
2024/03/25 01:18:33;;;;;;;4.45;1.73;;;;;;;;;;4993146;28;20091;-79
2024/03/25 01:20:59;;;;;;;2.92;1.50;;;;;;;;;;4977763;28;20050;-82
2024/03/25 01:23:24;;;;;;;3.40;1.80;;;;;;;;;;5001161;28;20053;-83
2024/03/25 01:25:50;;;;;;;3.53;1.70;;;;;;;;;;4979845;28;20053;-83
2024/03/25 01:28:16;;;;;;;7.82;2.47;;;;;;;;;;5017771;28;20583;-81
2024/03/25 01:30:41;;;;;;;5.32;1.90;;;;;;;;;;4996875;28;20054;-80
2024/03/25 01:33:07;;;;;;;1.90;1.40;;;;;;;;;;5018410;28;20040;-81
2024/03/25 01:35:32;;;;;;;2.75;1.60;;;;;;;;;;5022480;28;20037;-81
2024/03/25 01:37:58;;;;;;;6.32;1.88;;;;;;;;;;5022519;28;20048;-81
2024/03/25 01:40:23;;;;;;;3.03;1.83;;;;;;;;;;5015784;28;20056;-81
2024/03/25 01:42:59;;;;;;;3.15;1.75;;;;;;;;;;4998768;28;20121;-80
2024/03/25 01:45:25;;;;;;;2.83;1.88;;;;;;;;;;5031125;28;20049;-79
2024/03/25 01:47:50;;;;;;;4.60;1.90;;;;;;;;;;4982687;28;20057;-82
2024/03/25 01:50:16;;;;;;;2.53;1.58;;;;;;;;;;5000605;28;20065;-82
2024/03/25 01:52:42;;;;;;;6.70;2.20;;;;;;;;;;4999767;28;20053;-82
2024/03/25 01:55:07;;;;;;;3.47;1.67;;;;;;;;;;5011803;28;20042;-82
2024/03/25 01:57:33;;;;;;;2.90;1.50;;;;;;;;;;5003971;28;20041;-81
2024/03/25 01:59:58;;;;;;;3.53;1.88;;;;;;;;;;5008378;28;20125;-82
2024/03/25 02:02:24;;;;;;;3.90;2.00;;;;;;;;;;5033330;28;20057;-82
2024/03/25 02:04:50;;;;;;;1.98;1.33;;;;;;;;;;5001786;28;20050;-82
2024/03/25 02:07:15;;;;;;;4.13;1.70;;;;;;;;;;4996819;28;20511;-82
2024/03/25 02:09:41;;;;;;;2.45;1.52;;;;;;;;;;5022536;28;20071;-82
2024/03/25 02:12:06;;;;;;;2.20;1.63;;;;;;;;;;5006759;28;20103;-82
2024/03/25 02:14:32;;;;;;;5.03;1.75;;;;;;;;;;4984082;28;20057;-83
2024/03/25 02:16:58;;;;;;;3.08;1.63;;;;;;;;;;5000706;28;20130;-83
2024/03/25 02:19:24;;;;;;;3.67;1.65;;;;;;;;;;5006483;28;20052;-83
2024/03/25 02:21:49;;;;;;;6.93;1.90;;;;;;;;;;5003746;28;20049;-83
2024/03/25 02:24:15;;;;;;;6.15;2.17;;;;;;;;;;5005455;28;20053;-83
2024/03/25 02:26:40;;;;;;;3.10;1.92;;;;;;;;;;5050963;28;20076;-82
2024/03/25 02:29:08;;;;;;;3.53;1.95;;;;;;;;;;5049592;28;20064;-83
2024/03/25 02:31:34;;;;;;;4.60;1.60;;;;;;;;;;5034479;28;20053;-83
2024/03/25 02:33:59;;;;;;;5.20;1.92;;;;;;;;;;5033201;28;20053;-80
2024/03/25 02:36:25;;;;;;;4.28;2.00;;;;;;;;;;4998446;28;20069;-81
2024/03/25 02:38:50;;;;;;;3.30;1.52;;;;;;;;;;5037552;28;20050;-80
2024/03/25 02:41:16;;;;;;;4.22;1.60;;;;;;;;;;5002441;28;20053;-82
2024/03/25 02:43:42;;;;;;;3.40;1.70;;;;;;;;;;5020565;28;20061;-82
2024/03/25 02:46:07;;;;;;;6.13;1.70;;;;;;;;;;4987962;28;20060;-82
2024/03/25 02:48:33;;;;;;;3.55;2.20;;;;;;;;;;4987604;28;20072;-83
2024/03/25 02:50:58;;;;;;;10.30;2.60;;;;;;;;;;5000418;28;20049;-83
2024/03/25 02:53:24;;;;;;;3.72;1.75;;;;;;;;;;5032658;28;20107;-83
2024/03/25 02:55:49;;;;;;;4.40;1.88;;;;;;;;;;5032837;28;20053;-83
2024/03/25 02:58:15;;;;;;;5.43;1.83;;;;;;;;;;5037399;28;20053;-83
2024/03/25 03:00:41;;;;;;;4.10;2.53;;;;;;;;;;4999624;28;20057;-83
2024/03/25 03:03:07;;;;;;;2.47;1.60;;;;;;;;;;4999550;28;20103;-83
2024/03/25 03:05:33;;;;;;;3.97;1.92;;;;;;;;;;5015604;28;20415;-83
2024/03/25 03:07:58;;;;;;;3.85;2.22;;;;;;;;;;4990418;28;20046;-83
2024/03/25 03:10:24;;;;;;;3.35;1.70;;;;;;;;;;5013295;28;20607;-83
2024/03/25 03:12:49;;;;;;;5.00;2.10;;;;;;;;;;5033096;28;20061;-83
2024/03/25 03:15:15;;;;;;;5.32;2.55;;;;;;;;;;4999410;28;20057;-83
2024/03/25 03:17:40;;;;;;;3.13;1.70;;;;;;;;;;5002901;28;20045;-83
2024/03/25 03:20:06;;;;;;;4.53;1.85;;;;;;;;;;5020632;28;20049;-83
2024/03/25 03:22:32;;;;;;;5.03;1.88;;;;;;;;;;4991546;28;20049;-84
2024/03/25 03:24:58;;;;;;;3.83;1.60;;;;;;;;;;4977910;28;20045;-83
2024/03/25 03:27:23;;;;;;;4.20;1.90;;;;;;;;;;5001684;28;20109;-83
2024/03/25 03:29:49;;;;;;;4.97;2.05;;;;;;;;;;4999567;28;20060;-82
2024/03/25 03:32:14;;;;;;;2.90;1.42;;;;;;;;;;5024927;28;20065;-83
2024/03/25 03:34:40;;;;;;;3.72;2.10;;;;;;;;;;5005430;28;20073;-83
2024/03/25 03:37:06;;;;;;;4.43;2.00;;;;;;;;;;5032072;28;20057;-83
2024/03/25 03:39:31;;;;;;;4.07;2.30;;;;;;;;;;5018333;28;20420;-81
2024/03/25 03:41:57;;;;;;;3.65;1.90;;;;;;;;;;5015659;28;20061;-82
2024/03/25 03:44:22;;;;;;;4.88;2.30;;;;;;;;;;4998733;28;20451;-83
2024/03/25 03:46:48;;;;;;;4.22;2.08;;;;;;;;;;4995880;28;20129;-83
2024/03/25 03:49:13;;;;;;;4.70;1.85;;;;;;;;;;4995599;28;20056;-83
2024/03/25 03:51:39;;;;;;;2.25;1.73;;;;;;;;;;4999544;28;20431;-83
2024/03/25 03:54:04;;;;;;;4.97;1.90;;;;;;;;;;5031864;28;20057;-83
2024/03/25 03:56:30;;;;;;;5.18;1.83;;;;;;;;;;4999092;28;20053;-83
2024/03/25 03:58:56;;;;;;;3.35;2.00;;;;;;;;;;5031643;28;20475;-83
2024/03/25 04:01:21;;;;;;;5.35;2.47;;;;;;;;;;5001407;28;20078;-83
2024/03/25 04:03:47;;;;;;;3.03;1.95;;;;;;;;;;4998826;28;20057;-83
2024/03/25 04:06:13;;;;;;;3.67;2.20;;;;;;;;;;5031217;28;20099;-83
2024/03/25 04:08:39;;;;;;;4.57;1.88;;;;;;;;;;5006615;28;20054;-83
2024/03/25 04:11:06;;;;;;;4.82;2.47;;;;;;;;;;5013713;28;20107;-83
2024/03/25 04:13:32;;;;;;;5.03;2.50;;;;;;;;;;4982599;28;20064;-83
2024/03/25 04:16:01;;;;;;;4.20;2.15;;;;;;;;;;5031551;28;20315;-83
2024/03/25 04:18:28;;;;;;;7.45;2.25;;;;;;;;;;5015006;28;20408;-83
2024/03/25 04:20:53;;;;;;;3.92;2.25;;;;;;;;;;5006746;28;20049;-83
2024/03/25 04:23:19;;;;;;;6.85;2.50;;;;;;;;;;5000923;28;20803;-83
2024/03/25 04:25:44;;;;;;;5.70;3.08;;;;;;;;;;5000848;28;20053;-83
2024/03/25 04:28:10;;;;;;;5.57;2.60;;;;;;;;;;5009358;28;20057;-82
2024/03/25 04:30:36;;;;;;;4.75;2.17;;;;;;;;;;4998492;28;20488;-82
2024/03/25 04:33:01;;;;;;;5.15;2.05;;;;;;;;;;4982439;28;20057;-84
2024/03/25 04:35:27;;;;;;;3.75;2.22;;;;;;;;;;4983261;28;20136;-83
2024/03/25 04:37:53;;;;;;;5.10;2.30;;;;;;;;;;4995208;28;20109;-84
2024/03/25 04:40:19;;;;;;;6.00;2.22;;;;;;;;;;4992560;28;20056;-83
2024/03/25 04:42:45;;;;;;;4.68;2.97;;;;;;;;;;4979104;28;20112;-83
2024/03/25 04:45:11;;;;;;;4.00;2.92;;;;;;;;;;4997729;28;20053;-81
2024/03/25 04:47:37;;;;;;;5.45;2.55;;;;;;;;;;4981891;28;20478;-80
2024/03/25 04:50:03;;;;;;;3.65;2.65;;;;;;;;;;5002155;28;20134;-77
2024/03/25 04:52:29;;;;;;;8.70;2.80;;;;;;;;;;4985087;28;20045;-80
2024/03/25 04:54:54;;;;;;;4.90;3.15;;;;;;;;;;4979339;28;20058;-79
2024/03/25 04:57:20;;;;;;;6.00;3.10;;;;;;;;;;5004779;28;20056;-78
2024/03/25 04:59:45;;;;;;;5.10;3.03;;;;;;;;;;5013690;28;20069;-82
2024/03/25 05:02:11;;;;;;;5.40;2.80;;;;;;;;;;4997371;28;20053;-81
2024/03/25 05:04:36;;;;;;;5.63;2.60;;;;;;;;;;4996522;28;20050;-83
2024/03/25 05:07:02;;;;;;;5.80;2.80;;;;;;;;;;4995743;28;20080;-80
2024/03/25 05:09:27;;;;;;;5.95;2.88;;;;;;;;;;4987808;28;20046;-81
2024/03/25 05:11:53;;;;;;;5.32;2.70;;;;;;;;;;4980810;28;20080;-82
2024/03/25 05:14:18;;;;;;;6.78;3.13;;;;;;;;;;5009961;28;20058;-81
2024/03/25 05:16:48;;;;;;;8.75;2.85;;;;;;;;;;4980939;28;20057;-78
2024/03/25 05:19:14;;;;;;;3.60;2.40;;;;;;;;;;5003262;28;20053;-80
2024/03/25 05:21:40;;;;;;;3.75;2.67;;;;;;;;;;4997228;28;20072;-79
2024/03/25 05:24:06;;;;;;;6.72;3.97;;;;;;;;;;4994601;28;20050;-79
2024/03/25 05:26:31;;;;;;;8.93;3.22;;;;;;;;;;4999473;28;20046;-78
2024/03/25 05:28:57;;;;;;;5.25;2.78;;;;;;;;;;5014997;28;20049;-80
2024/03/25 05:31:23;;;;;;;6.38;2.92;;;;;;;;;;4981234;28;20514;-79
2024/03/25 05:33:49;;;;;;;7.57;2.78;;;;;;;;;;4977487;28;20049;-79
2024/03/25 05:36:14;;;;;;;7.07;2.47;;;;;;;;;;5004507;28;20059;-80
2024/03/25 05:38:41;;;;;;;4.22;2.85;;;;;;;;;;4997364;28;20073;-80
2024/03/25 05:41:07;;;;;;;6.35;2.70;;;;;;;;;;4980638;28;20053;-79
2024/03/25 05:43:33;;;;;;;6.45;2.60;;;;;;;;;;5004399;28;20054;-80
2024/03/25 05:45:58;;;;;;;4.82;2.30;;;;;;;;;;5014465;28;20075;-79
2024/03/25 05:48:24;;;;;;;6.55;2.97;;;;;;;;;;5028659;28;20050;-79
2024/03/25 05:51:05;;;;;;;4.13;2.40;;;;;;;;;;5007868;28;20061;-79
2024/03/25 05:53:30;;;;;;;3.17;2.05;;;;;;;;;;5005062;28;20534;-80
2024/03/25 05:55:56;;;;;;;3.92;2.85;;;;;;;;;;4988231;28;20057;-81
2024/03/25 05:58:22;;;;;;;3.97;2.28;;;;;;;;;;4989710;28;20077;-79
2024/03/25 06:00:50;;;;;;;5.85;2.53;;;;;;;;;;5013393;28;20426;-79
2024/03/25 06:03:17;;;;;;;4.43;2.50;;;;;;;;;;5004781;28;20053;-80
2024/03/25 06:05:42;;;;;;;5.35;2.80;;;;;;;;;;4987430;28;20420;-81
2024/03/25 06:08:15;;;;;;;4.00;2.55;;;;;;;;;;5024162;28;20051;-80
2024/03/25 06:10:41;;;;;;;;;;;;;;;;;;5016778;28;20419;-80
2024/03/25 06:13:07;;;;;;;3.10;2.75;;;;;;;;;;5005658;28;19932;-81
2024/03/25 06:15:32;;;;;;;5.82;2.83;;;;;;;;;;5004169;28;20049;-80
2024/03/25 06:17:58;;;;;;;5.55;2.90;;;;;;;;;;4987729;28;20057;-80
2024/03/25 06:20:23;;;;;;;3.55;2.53;;;;;;;;;;5001144;28;20049;-80
2024/03/25 06:22:50;;;;;;;5.25;2.85;;;;;;;;;;5000570;28;20050;-81
2024/03/25 06:25:17;;;;;;;4.50;3.00;;;;;;;;;;5016306;28;20046;-80
2024/03/25 06:27:42;;;;;;;8.02;2.72;;;;;;;;;;4983631;28;20120;-80
2024/03/25 06:35:36;;;;;;;4.53;2.83;;;;;;;;;;5016059;28;20057;-80
2024/03/25 06:38:02;;;;;;;7.63;3.47;;;;;;;;;;4999682;28;20103;-80
2024/03/25 06:40:27;;;;;;;8.00;3.53;;;;;;;;;;4999187;28;20045;-77
2024/03/25 06:42:53;;;;;;;6.70;3.38;;;;;;;;;;5002853;28;20060;-76
2024/03/25 06:45:18;;;;;;;5.07;3.00;;;;;;;;;;4998890;28;20049;-77
2024/03/25 06:47:44;;;;;;;5.95;2.97;;;;;;;;;;4999004;28;20065;-78
2024/03/25 06:50:10;;;;;;;5.40;3.05;;;;;;;;;;5007632;28;20053;-75
2024/03/25 06:52:35;;;;;;;4.68;2.65;;;;;;;;;;4998607;28;20435;-78
2024/03/25 06:55:01;;;;;;;5.75;2.70;;;;;;;;;;4985517;28;20512;-78
2024/03/25 06:57:26;;;;;;;4.55;2.83;;;;;;;;;;5016100;28;20054;-80
2024/03/25 06:59:52;;;;;;;8.18;2.95;;;;;;;;;;5033878;28;20045;-78
2024/03/25 07:02:17;;;;;;;7.80;3.17;;;;;;;;;;5002311;28;20054;-78
2024/03/25 07:04:43;;;;;;;6.53;3.67;;;;;;;;;;5003399;28;20036;-77
2024/03/25 07:07:08;;;;;;;6.45;3.63;;;;;;;;;;5022540;28;20084;-78
2024/03/25 07:09:34;;;;;;;4.70;2.58;;;;;;;;;;5036418;28;20064;-78
2024/03/25 07:11:59;;;;;;;5.35;2.78;;;;;;;;;;5039430;28;20065;-77
2024/03/25 07:14:25;;;;;;;4.47;2.90;;;;;;;;;;5006739;28;20045;-78
2024/03/25 07:16:50;;;;;;;6.57;2.70;;;;;;;;;;5008004;28;20033;-79
2024/03/25 07:19:16;;;;;;;4.25;2.85;;;;;;;;;;5054170;28;20044;-78
2024/03/25 07:21:41;;;;;;;6.30;2.70;;;;;;;;;;5022107;28;20063;-78
2024/03/25 07:24:07;;;;;;;6.35;3.30;;;;;;;;;;5022487;28;20063;-78
2024/03/25 07:26:33;;;;;;;5.57;2.95;;;;;;;;;;5031213;28;20061;-78
2024/03/25 07:28:58;;;;;;;5.13;2.60;;;;;;;;;;4999739;28;20061;-78
2024/03/25 07:31:25;;;;;;;6.53;2.55;;;;;;;;;;5015334;28;20482;-78
2024/03/25 07:33:50;;;;;;;8.65;3.40;;;;;;;;;;5001892;28;20053;-78
2024/03/25 07:36:16;;;;;;;5.72;3.33;;;;;;;;;;5008865;28;20103;-78
2024/03/25 07:38:42;;;;;;;5.90;2.47;;;;;;;;;;4997049;28;20053;-78
2024/03/25 07:41:08;;;;;;;4.53;3.13;;;;;;;;;;4996639;28;20053;-78
2024/03/25 07:43:34;;;;;;;6.00;3.13;;;;;;;;;;5069850;23;20057;-77
2024/03/25 07:45:59;;;;;;;7.32;2.40;;;;;;;;;;4982310;28;20051;-79
2024/03/25 07:48:25;;;;;;;7.43;2.55;;;;;;;;;;4991438;28;20051;-78
2024/03/25 07:50:51;;;;;;;4.78;2.55;;;;;;;;;;4993165;28;20054;-78
2024/03/25 07:53:16;;;;;;;5.50;2.55;;;;;;;;;;5006663;28;20465;-76
2024/03/25 07:55:42;;;;;;;5.20;2.72;;;;;;;;;;4980196;28;20054;-79
2024/03/25 07:58:08;;;;;;;9.05;2.72;;;;;;;;;;4960404;28;20089;-79
2024/03/25 08:00:34;;;;;;;8.50;2.35;;;;;;;;;;4961200;28;20054;-80
2024/03/25 08:03:00;;;;;;;6.55;2.53;;;;;;;;;;4981215;28;20058;-80
2024/03/25 08:05:25;;;;;;;3.00;1.95;;;;;;;;;;4987146;28;20061;-81
2024/03/25 08:07:51;;;;;;;5.47;2.67;;;;;;;;;;4955209;28;20046;-82
2024/03/25 08:10:16;;;;;;;4.60;2.20;;;;;;;;;;4976279;28;20145;-83
2024/03/25 08:12:42;;;;;;;3.80;2.10;;;;;;;;;;4963052;28;20467;-80
2024/03/25 08:15:08;;;;;;;7.10;2.10;;;;;;;;;;4976378;28;20061;-78
2024/03/25 08:17:33;;;;;;;4.43;1.83;;;;;;;;;;4985045;28;20054;-78
2024/03/25 08:19:59;;;;;;;3.53;1.73;;;;;;;;;;4984751;28;20047;-76
2024/03/25 08:22:24;;;;;;;3.55;1.73;;;;;;;;;;4984919;28;20050;-74
2024/03/25 08:24:50;;;;;;;3.75;1.73;;;;;;;;;;4973487;28;20371;-73
2024/03/25 08:27:15;;;;;;;3.08;1.70;;;;;;;;;;4985836;28;20126;-76
2024/03/25 08:29:41;;;;;;;6.65;2.15;;;;;;;;;;4971464;28;20497;-76
2024/03/25 08:32:07;;;;;;;5.88;1.85;;;;;;;;;;4959041;28;20508;-77
2024/03/25 08:34:32;;;;;;;4.10;2.03;;;;;;;;;;4973952;28;20058;-77
2024/03/25 08:36:58;;;;;;;4.07;1.75;;;;;;;;;;4952866;28;20113;-79
2024/03/25 08:39:23;;;;;;;2.55;1.55;;;;;;;;;;4975975;28;20122;-77
2024/03/25 08:41:49;;;;;;;4.20;1.70;;;;;;;;;;4998015;28;20515;-78
2024/03/25 08:44:14;;;;;;;6.28;1.70;;;;;;;;;;4974697;28;20072;-76
2024/03/25 08:46:40;;;;;;;3.53;1.58;;;;;;;;;;4984928;28;20050;-75
2024/03/25 08:49:05;;;;;;;5.40;1.67;;;;;;;;;;5001473;28;20057;-76
2024/03/25 08:51:31;;;;;;;4.55;2.20;;;;;;;;;;4998911;28;20062;-77
2024/03/25 08:53:56;;;;;;;6.00;1.90;;;;;;;;;;4981926;28;20050;-77
2024/03/25 08:56:22;;;;;;;3.08;1.65;;;;;;;;;;4979452;28;20050;-76
2024/03/25 08:58:47;;;;;;;3.92;1.42;;;;;;;;;;4973770;28;20057;-77
2024/03/25 09:01:16;;;;;;;5.03;2.40;;;;;;;;;;4996549;28;20046;-77
2024/03/25 09:03:42;;;;;;;6.30;1.88;;;;;;;;;;4975208;28;20050;-77
2024/03/25 09:06:07;;;;;;;5.50;2.13;;;;;;;;;;5000673;28;20129;-76
2024/03/25 09:11:02;;;;;;;3.30;1.42;;;;;;;;;;4982457;28;20056;-77
2024/03/25 09:11:19;;;;;;;5.90;1.00;;;;;;;;;;4982517;28;20053;-77
2024/03/25 09:13:44;;;;;;;5.15;1.60;;;;;;;;;;4958071;28;20062;-76
2024/03/25 09:16:10;;;;;;;5.18;1.40;;;;;;;;;;4986798;28;20419;-77
2024/03/25 09:18:36;;;;;;;3.10;1.77;;;;;;;;;;4986016;28;20432;-76
2024/03/25 09:21:01;;;;;;;3.85;1.77;;;;;;;;;;4961301;28;20046;-76
2024/03/25 09:23:27;;;;;;;6.13;1.38;;;;;;;;;;5004022;28;20053;-76
2024/03/25 09:25:53;;;;;;;3.20;1.40;;;;;;;;;;4962562;28;20051;-77
2024/03/25 09:28:19;;;;;;;2.50;1.52;;;;;;;;;;4985158;28;20419;-77
2024/03/25 09:30:44;;;;;;;2.97;1.27;;;;;;;;;;4977948;28;20062;-77
2024/03/25 09:33:10;;;;;;;3.28;1.65;;;;;;;;;;4986076;28;20062;-76
2024/03/25 09:35:36;;;;;;;4.03;1.08;;;;;;;;;;4980222;28;20053;-76
2024/03/25 09:38:02;;;;;;;3.05;1.10;;;;;;;;;;5026994;28;20060;-76
2024/03/25 09:40:29;;;;;;;2.60;1.10;;;;;;;;;;4981667;28;20058;-77
2024/03/25 09:42:57;;;;;;;3.42;1.23;;;;;;;;;;4983589;28;20057;-77
2024/03/25 09:45:26;;;;;;;4.80;1.48;;;;;;;;;;4976402;28;20507;-77
2024/03/25 09:47:52;;;;;;;5.07;1.50;;;;;;;;;;4994778;28;20472;-77
2024/03/25 09:50:20;;;;;;;1.70;1.20;;;;;;;;;;4960843;28;20085;-78
2024/03/25 09:52:46;;;;;;;3.20;0.88;;;;;;;;;;4999251;28;20159;-84
2024/03/25 09:55:12;;;;;;;1.80;0.88;;;;;;;;;;5017957;28;20069;-78
2024/03/25 09:57:38;;;;;;;1.35;0.88;;;;;;;;;;5007584;28;20606;-79
2024/03/25 10:00:07;;;;;;;2.15;1.42;;;;;;;;;;5008714;28;20160;-80
2024/03/25 10:02:34;;;;;;;2.58;1.20;;;;;;;;;;4992781;28;20050;-80
2024/03/25 10:04:59;;;;;;;3.67;1.08;;;;;;;;;;4999999;28;20053;-80
2024/03/25 10:07:28;;;;;;;3.25;1.17;;;;;;;;;;5018089;28;20054;-79
2024/03/25 10:09:53;;;;;;;2.67;1.13;;;;;;;;;;4986280;28;20409;-79
2024/03/25 10:12:19;;;;;;;4.65;2.17;;;;;;;;;;5008522;28;20126;-80
2024/03/25 10:14:45;;;;;;;1.63;0.88;;;;;;;;;;4969893;28;20093;-80
2024/03/25 10:17:11;;;;;;;3.72;1.45;;;;;;;;;;4995986;28;20076;-79
2024/03/25 10:19:36;;;;;;;4.30;1.55;;;;;;;;;;4997418;28;20068;-80
2024/03/25 10:22:05;;;;;;;2.88;1.00;;;;;;;;;;4991557;28;20145;-80
2024/03/25 10:24:38;;;;;;;2.67;1.20;;;;;;;;;;4989307;28;20047;-80
2024/03/25 10:27:04;;;;;;;3.83;1.42;;;;;;;;;;5004309;28;20043;-80
2024/03/25 10:29:30;;;;;;;1.42;0.93;;;;;;;;;;4958286;28;20132;-80
2024/03/25 10:31:59;;;;;;;2.78;0.90;;;;;;;;;;5008414;28;20092;-80
2024/03/25 10:34:24;;;;;;;1.92;1.00;;;;;;;;;;4960685;28;20451;-80
2024/03/25 10:36:50;;;;;;;3.38;1.15;;;;;;;;;;4993432;28;20078;-79
2024/03/25 10:39:16;;;;;;;1.73;0.80;;;;;;;;;;4993023;28;20061;-80
2024/03/25 10:41:41;;;;;;;2.63;1.48;;;;;;;;;;4999733;28;20050;-80
2024/03/25 10:44:07;;;;;;;4.10;1.30;;;;;;;;;;5010249;28;20427;-80
2024/03/25 10:46:34;;;;;;;3.60;1.35;;;;;;;;;;4955293;28;20061;-80
2024/03/25 10:49:00;;;;;;;2.85;1.20;;;;;;;;;;4996869;28;20511;-80
2024/03/25 10:51:25;;;;;;;2.95;1.40;;;;;;;;;;5001044;28;20128;-80
2024/03/25 10:53:51;;;;;;;5.43;1.30;;;;;;;;;;4983150;28;20058;-80
2024/03/25 10:56:19;;;;;;;3.47;1.23;;;;;;;;;;4991156;28;20053;-80
2024/03/25 10:58:44;;;;;;;3.25;1.40;;;;;;;;;;4967319;28;20054;-80
2024/03/25 11:01:10;;;;;;;3.55;1.50;;;;;;;;;;4993392;28;20050;-80
2024/03/25 11:03:36;;;;;;;2.88;1.80;;;;;;;;;;4968034;28;20065;-80
2024/03/25 11:06:02;;;;;;;3.20;1.50;;;;;;;;;;4991741;28;20042;-80
2024/03/25 11:08:31;;;;;;;4.53;1.52;;;;;;;;;;4992457;28;20046;-80
2024/03/25 11:10:57;;;;;;;4.22;1.85;;;;;;;;;;4989392;28;20054;-80
2024/03/25 11:13:22;;;;;;;3.20;1.17;;;;;;;;;;4968774;28;20046;-80
2024/03/25 11:15:49;;;;;;;4.28;0.93;;;;;;;;;;5012513;28;20060;-80
2024/03/25 11:18:15;;;;;;;3.08;1.00;;;;;;;;;;4995761;28;20050;-80
2024/03/25 11:20:40;;;;;;;2.83;0.98;;;;;;;;;;4990828;28;20046;-80
2024/03/25 11:23:10;;;;;;;1.50;0.98;;;;;;;;;;5003233;28;20123;-83
2024/03/25 11:25:36;;;;;;;2.58;1.05;;;;;;;;;;4972691;28;20645;-80
2024/03/25 11:28:02;;;;;;;2.88;1.40;;;;;;;;;;4991191;28;20053;-83
2024/03/25 11:30:27;;;;;;;4.57;1.08;;;;;;;;;;4966337;28;20084;-79
2024/03/25 11:32:53;;;;;;;6.50;1.50;;;;;;;;;;4987399;28;20172;-80
2024/03/25 11:35:19;;;;;;;3.55;1.15;;;;;;;;;;4958835;28;20085;-79
2024/03/25 11:37:44;;;;;;;3.05;1.83;;;;;;;;;;5010063;28;20069;-80
2024/03/25 11:40:12;;;;;;;2.58;1.23;;;;;;;;;;4957925;28;20133;-81
2024/03/25 11:42:38;;;;;;;2.20;1.70;;;;;;;;;;4962148;28;20054;-82
2024/03/25 11:45:04;;;;;;;3.15;1.33;;;;;;;;;;4982058;28;20383;-82
2024/03/25 11:47:30;;;;;;;4.65;1.50;;;;;;;;;;4983734;28;20365;-81
2024/03/25 11:49:55;;;;;;;5.57;1.45;;;;;;;;;;4983862;28;20058;-79
2024/03/25 11:52:21;;;;;;;2.05;1.27;;;;;;;;;;4966549;28;20061;-80
2024/03/25 11:54:54;;;;;;;3.88;2.15;;;;;;;;;;4964476;28;20492;-81
2024/03/25 11:57:19;;;;;;;2.92;1.60;;;;;;;;;;4952735;28;20515;-80
2024/03/25 11:59:45;;;;;;;3.30;1.30;;;;;;;;;;4986813;28;20084;-81
2024/03/25 12:02:11;;;;;;;2.60;1.23;;;;;;;;;;4986970;28;20121;-80
2024/03/25 12:04:37;;;;;;;2.30;1.05;;;;;;;;;;4980911;28;20097;-80
2024/03/25 12:07:02;;;;;;;2.45;1.50;;;;;;;;;;4966288;28;20107;-79
2024/03/25 12:12:12;;;;;;;5.75;1.70;;;;;;;;;;4988916;28;20060;-80
2024/03/25 12:14:38;;;;;;;3.05;1.30;;;;;;;;;;4989155;28;20051;-81
2024/03/25 12:17:03;;;;;;;3.88;1.52;;;;;;;;;;4991148;28;20104;-80
2024/03/25 12:19:30;;;;;;;8.95;1.40;;;;;;;;;;5007308;28;20069;-80
2024/03/25 12:21:59;;;;;;;3.45;1.50;;;;;;;;;;4965877;28;20050;-80
2024/03/25 12:24:26;;;;;;;1.65;1.23;;;;;;;;;;4954186;28;20053;-81
2024/03/25 12:26:53;;;;;;;2.72;1.20;;;;;;;;;;4988720;28;20100;-81
2024/03/25 12:29:18;;;;;;;3.40;1.30;;;;;;;;;;4974528;28;20034;-80
2024/03/25 12:31:53;;;;;;;2.35;1.27;;;;;;;;;;5000864;28;20049;-80
2024/03/25 12:34:18;;;;;;;4.00;1.50;;;;;;;;;;5007927;28;20041;-81
2024/03/25 12:36:44;;;;;;;5.55;1.38;;;;;;;;;;5002138;28;20038;-81
2024/03/25 12:39:14;;;;;;;3.08;0.95;;;;;;;;;;4976314;28;20084;-78
2024/03/25 12:41:40;;;;;;;3.72;1.20;;;;;;;;;;5026983;28;20068;-77
2024/03/25 12:44:06;;;;;;;5.35;1.10;;;;;;;;;;5025639;28;20053;-76
2024/03/25 12:46:32;;;;;;;2.40;1.30;;;;;;;;;;5029014;28;20053;-76
2024/03/25 12:48:57;;;;;;;2.55;1.27;;;;;;;;;;5022800;28;20048;-76
2024/03/25 12:51:23;;;;;;;3.72;1.55;;;;;;;;;;4999325;28;20176;-76
2024/03/25 12:53:48;;;;;;;2.80;1.15;;;;;;;;;;4974981;28;20065;-75
2024/03/25 12:56:14;;;;;;;1.77;1.08;;;;;;;;;;4981546;28;20076;-76
2024/03/25 12:58:39;;;;;;;1.40;1.08;;;;;;;;;;4959891;28;20054;-79
2024/03/25 13:01:05;;;;;;;1.73;1.33;;;;;;;;;;4952128;28;20535;-78
2024/03/25 13:03:31;;;;;;;1.58;1.17;;;;;;;;;;4949864;28;20057;-77
2024/03/25 13:05:59;;;;;;;3.55;1.33;;;;;;;;;;4960318;28;20100;-77
2024/03/25 13:08:25;;;;;;;1.88;0.88;;;;;;;;;;4999307;28;20419;-78
2024/03/25 13:10:50;;;;;;;2.35;1.27;;;;;;;;;;4981825;28;20061;-78
2024/03/25 13:13:16;;;;;;;4.40;1.00;;;;;;;;;;5001570;28;20089;-77
2024/03/25 13:15:43;;;;;;;3.58;1.20;;;;;;;;;;4966470;28;20050;-79
2024/03/25 13:18:09;;;;;;;2.63;1.48;;;;;;;;;;4984947;28;20050;-78
2024/03/25 13:20:34;;;;;;;2.03;1.08;;;;;;;;;;4995451;28;20472;-79
2024/03/25 13:23:00;;;;;;;2.70;0.98;;;;;;;;;;4974536;28;20081;-78
2024/03/25 13:25:27;;;;;;;1.73;1.20;;;;;;;;;;4956278;28;20149;-78
2024/03/25 13:27:53;;;;;;;5.80;1.48;;;;;;;;;;4965643;28;20050;-79
2024/03/25 13:30:18;;;;;;;3.15;1.10;;;;;;;;;;4950098;28;20081;-78
2024/03/25 13:32:44;;;;;;;1.92;1.20;;;;;;;;;;4952158;28;20062;-80
2024/03/25 13:35:09;;;;;;;2.83;1.35;;;;;;;;;;4958019;28;20098;-77
2024/03/25 13:37:35;;;;;;;2.15;1.10;;;;;;;;;;5005589;28;20054;-78
2024/03/25 13:40:00;;;;;;;2.92;0.93;;;;;;;;;;5002102;28;20112;-81
2024/03/25 13:42:26;;;;;;;2.47;1.10;;;;;;;;;;5003004;28;20046;-77
2024/03/25 13:44:52;;;;;;;4.05;1.63;;;;;;;;;;5004349;28;20053;-78
2024/03/25 13:47:17;;;;;;;2.45;1.00;;;;;;;;;;5002966;28;20061;-78
2024/03/25 13:49:43;;;;;;;3.28;1.13;;;;;;;;;;4974446;28;20052;-77
2024/03/25 13:52:08;;;;;;;2.25;1.20;;;;;;;;;;4997446;28;20045;-81
2024/03/25 13:54:34;;;;;;;4.07;1.45;;;;;;;;;;4950397;28;20050;-81
2024/03/25 13:56:59;;;;;;;3.28;1.20;;;;;;;;;;4960656;28;20054;-81
2024/03/25 13:59:25;;;;;;;2.25;1.15;;;;;;;;;;4958992;28;20060;-81
2024/03/25 14:01:54;;;;;;;1.58;1.02;;;;;;;;;;4961084;28;20041;-80
2024/03/25 14:04:19;;;;;;;1.50;1.00;;;;;;;;;;4953270;28;20045;-81
2024/03/25 14:06:45;;;;;;;2.28;1.00;;;;;;;;;;4996757;28;20121;-81
2024/03/25 14:09:31;;;;;;;2.40;0.90;;;;;;;;;;4990558;28;20053;-80
2024/03/25 14:11:57;;;;;;;5.55;1.73;;;;;;;;;;4981552;28;20421;-80
2024/03/25 14:14:22;;;;;;;3.63;1.23;;;;;;;;;;5006783;28;20046;-79
2024/03/25 14:16:48;;;;;;;1.92;0.93;;;;;;;;;;5005950;28;20082;-79
2024/03/25 14:19:13;;;;;;;2.47;0.98;;;;;;;;;;5001014;28;20411;-81
2024/03/25 14:21:39;;;;;;;3.63;1.13;;;;;;;;;;4961110;28;20053;-80
2024/03/25 14:24:05;;;;;;;4.03;1.45;;;;;;;;;;4963229;28;20080;-82
2024/03/25 14:26:31;;;;;;;1.35;0.90;;;;;;;;;;4967362;28;20058;-81
2024/03/25 14:28:56;;;;;;;2.55;1.23;;;;;;;;;;4962784;28;20050;-81
2024/03/25 14:31:22;;;;;;;1.98;1.02;;;;;;;;;;4961161;28;20050;-80
2024/03/25 14:33:47;;;;;;;2.92;0.93;;;;;;;;;;4989160;28;20412;-81
2024/03/25 14:36:13;;;;;;;1.65;1.15;;;;;;;;;;4962518;28;20100;-80
2024/03/25 14:38:39;;;;;;;1.40;1.10;;;;;;;;;;5001616;28;20068;-81
2024/03/25 14:41:05;;;;;;;2.08;1.20;;;;;;;;;;4979953;28;20050;-81
2024/03/25 14:43:30;;;;;;;1.48;1.00;;;;;;;;;;4990187;28;20519;-80